createdAt,value
2018-07-28T00:00:30.203Z,58.40
2018-07-28T00:02:58.567Z,58.40
2018-07-28T00:05:26.868Z,58.60
2018-07-28T00:07:55.303Z,58.70
2018-07-28T00:10:23.647Z,58.80
2018-07-28T00:12:52.008Z,58.80
2018-07-28T00:15:20.325Z,58.80
2018-07-28T00:17:48.656Z,59.00
2018-07-28T00:20:17.019Z,59.10
2018-07-28T00:22:45.369Z,59.30
2018-07-28T00:25:13.709Z,59.40
2018-07-28T00:27:42.465Z,59.60
2018-07-28T00:30:12.696Z,59.60
2018-07-28T00:32:41.147Z,59.50
2018-07-28T00:35:09.523Z,59.60
2018-07-28T00:37:38.288Z,59.60
2018-07-28T00:40:07.116Z,59.70
2018-07-28T00:42:35.744Z,59.80
2018-07-28T00:45:04.623Z,59.90
2018-07-28T00:47:32.971Z,60.10
2018-07-28T00:50:01.285Z,60.30
2018-07-28T00:52:29.622Z,60.30
2018-07-28T00:54:57.959Z,60.40
2018-07-28T00:57:26.277Z,60.50
2018-07-28T00:59:54.618Z,60.50
2018-07-28T01:02:22.929Z,60.70
2018-07-28T01:04:51.266Z,60.60
2018-07-28T01:07:19.556Z,60.80
2018-07-28T01:09:47.907Z,61.10
2018-07-28T01:12:16.205Z,61.20
2018-07-28T01:14:44.520Z,61.40
2018-07-28T01:17:12.848Z,61.30
2018-07-28T01:19:41.219Z,61.50
2018-07-28T01:22:09.619Z,61.50
2018-07-28T01:24:38.048Z,61.70
2018-07-28T01:27:06.641Z,61.70
2018-07-28T01:29:34.971Z,61.70
2018-07-28T01:32:03.299Z,61.80
2018-07-28T01:34:31.676Z,61.70
2018-07-28T01:36:59.963Z,61.80
2018-07-28T01:39:28.332Z,61.80
2018-07-28T01:41:56.658Z,61.80
2018-07-28T01:44:25.020Z,61.90
2018-07-28T01:46:53.337Z,62.10
2018-07-28T01:49:21.786Z,62.30
2018-07-28T01:51:50.109Z,62.50
2018-07-28T01:54:18.429Z,62.70
2018-07-28T01:56:46.732Z,62.70
2018-07-28T01:59:15.070Z,62.80
2018-07-28T02:01:43.392Z,62.80
2018-07-28T02:04:18.311Z,62.90
2018-07-28T02:06:46.634Z,63.00
2018-07-28T02:09:14.994Z,63.20
2018-07-28T02:11:43.323Z,63.50
2018-07-28T02:14:11.663Z,63.60
2018-07-28T02:16:39.978Z,63.70
2018-07-28T02:19:08.307Z,63.80
2018-07-28T02:24:04.696Z,63.80
2018-07-28T02:26:33.023Z,63.40
2018-07-28T02:29:01.358Z,63.50
2018-07-28T02:31:29.696Z,63.90
2018-07-28T02:33:58.025Z,64.40
2018-07-28T02:36:26.379Z,64.40
2018-07-28T02:38:54.715Z,64.10
2018-07-28T02:41:23.028Z,64.40
2018-07-28T02:43:51.363Z,65.20
2018-07-28T02:46:19.688Z,65.20
2018-07-28T02:48:48.009Z,64.90
2018-07-28T02:51:16.341Z,65.30
2018-07-28T02:53:45.611Z,67.10
2018-07-28T02:56:14.951Z,67.10
2018-07-28T02:58:43.329Z,67.00
2018-07-28T03:01:12.275Z,66.80
2018-07-28T03:03:41.059Z,67.30
2018-07-28T03:06:09.543Z,68.30
2018-07-28T03:08:37.991Z,69.80
2018-07-28T03:11:06.432Z,70.50
2018-07-28T03:13:34.761Z,70.30
2018-07-28T03:16:07.725Z,69.70
2018-07-28T03:18:36.079Z,69.50
2018-07-28T03:21:04.506Z,68.80
2018-07-28T03:23:32.847Z,68.70
2018-07-28T03:26:01.201Z,67.80
2018-07-28T03:28:29.573Z,68.30
2018-07-28T03:30:57.911Z,68.30
2018-07-28T03:33:26.237Z,68.30
2018-07-28T03:35:54.579Z,68.00
2018-07-28T03:38:22.888Z,67.40
2018-07-28T03:40:51.200Z,67.60
2018-07-28T03:43:19.524Z,67.60
2018-07-28T03:45:47.855Z,67.80
2018-07-28T03:48:16.233Z,67.80
2018-07-28T03:50:44.567Z,68.00
2018-07-28T03:53:12.900Z,68.00
2018-07-28T03:55:41.251Z,68.30
2018-07-28T03:58:09.563Z,68.50
2018-07-28T04:00:37.883Z,68.40
2018-07-28T04:03:06.375Z,68.70
2018-07-28T04:05:34.697Z,68.60
2018-07-28T04:08:03.018Z,69.10
2018-07-28T04:10:31.359Z,69.30
2018-07-28T04:12:59.693Z,69.30
2018-07-28T04:15:28.052Z,69.60
2018-07-28T04:17:56.784Z,69.60
2018-07-28T04:20:26.327Z,69.90
2018-07-28T04:22:58.071Z,70.30
2018-07-28T04:25:26.428Z,70.60
2018-07-28T04:27:54.729Z,70.70
2018-07-28T04:30:23.063Z,71.20
2018-07-28T04:32:51.380Z,71.00
2018-07-28T04:35:19.707Z,71.30
2018-07-28T04:37:48.020Z,71.70
2018-07-28T04:40:16.365Z,71.80
2018-07-28T04:42:44.669Z,71.80
2018-07-28T04:45:13.049Z,72.20
2018-07-28T04:47:41.379Z,72.00
2018-07-28T04:50:09.721Z,72.40
2018-07-28T04:52:38.034Z,72.60
2018-07-28T04:55:06.615Z,72.80
2018-07-28T04:57:34.948Z,73.00
2018-07-28T05:00:03.303Z,73.20
2018-07-28T05:02:31.609Z,73.20
2018-07-28T05:04:59.962Z,73.30
2018-07-28T05:07:28.454Z,73.90
2018-07-28T05:09:56.733Z,73.90
2018-07-28T05:12:25.275Z,74.40
2018-07-28T05:14:53.611Z,73.80
2018-07-28T05:17:22.203Z,74.40
2018-07-28T05:19:50.509Z,74.40
2018-07-28T05:22:18.852Z,74.00
2018-07-28T05:24:47.153Z,73.40
2018-07-28T05:27:15.480Z,73.50
2018-07-28T05:29:43.895Z,73.10
2018-07-28T05:32:12.171Z,72.50
2018-07-28T05:34:40.520Z,72.30
2018-07-28T05:37:08.917Z,72.30
2018-07-28T05:39:37.148Z,72.00
2018-07-28T05:42:05.556Z,71.90
2018-07-28T05:44:33.866Z,71.30
2018-07-28T05:47:02.340Z,71.40
2018-07-28T05:49:30.693Z,71.20
2018-07-28T05:51:59.008Z,71.20
2018-07-28T05:54:27.318Z,71.10
2018-07-28T05:56:55.702Z,71.90
2018-07-28T05:59:24.015Z,71.80
2018-07-28T06:01:52.395Z,71.60
2018-07-28T06:04:20.761Z,71.60
2018-07-28T06:06:49.100Z,72.40
2018-07-28T06:09:17.420Z,72.30
2018-07-28T06:11:45.767Z,72.50
2018-07-28T06:14:14.148Z,72.60
2018-07-28T06:16:42.501Z,72.40
2018-07-28T06:19:10.828Z,72.90
2018-07-28T06:21:39.165Z,72.40
2018-07-28T06:24:07.468Z,71.90
2018-07-28T06:26:35.797Z,71.60
2018-07-28T06:29:04.135Z,71.40
2018-07-28T06:31:32.508Z,71.90
2018-07-28T06:34:00.803Z,71.90
2018-07-28T06:36:29.147Z,75.00
2018-07-28T06:38:57.467Z,75.90
2018-07-28T06:41:25.820Z,77.40
2018-07-28T06:43:54.167Z,79.60
2018-07-28T06:46:22.522Z,78.60
2018-07-28T06:48:51.093Z,79.60
2018-07-28T06:51:19.417Z,80.30
2018-07-28T06:53:47.793Z,80.20
2018-07-28T06:56:16.087Z,79.90
2018-07-28T06:58:44.423Z,81.70
2018-07-28T07:01:12.793Z,82.30
2018-07-28T07:03:41.155Z,84.10
2018-07-28T07:06:09.481Z,85.60
2018-07-28T07:08:37.803Z,87.80
2018-07-28T07:11:06.187Z,86.60
2018-07-28T07:13:34.613Z,84.40
2018-07-28T07:16:02.931Z,83.50
2018-07-28T07:18:31.771Z,83.10
2018-07-28T07:21:00.080Z,82.90
2018-07-28T07:23:28.434Z,82.80
2018-07-28T07:25:57.071Z,80.70
2018-07-28T07:28:25.427Z,81.30
2018-07-28T07:30:53.841Z,81.30
2018-07-28T07:33:22.181Z,80.30
2018-07-28T07:35:50.493Z,80.60
2018-07-28T07:38:18.911Z,80.60
2018-07-28T07:40:47.251Z,78.60
2018-07-28T07:43:15.606Z,80.80
2018-07-28T07:45:44.016Z,79.30
2018-07-28T07:48:12.421Z,79.00
2018-07-28T07:50:41.046Z,77.90
2018-07-28T07:53:09.440Z,76.70
2018-07-28T07:55:37.872Z,77.30
2018-07-28T07:58:06.231Z,77.70
2018-07-28T08:00:34.603Z,76.60
2018-07-28T08:03:02.950Z,77.50
2018-07-28T08:05:31.279Z,75.50
2018-07-28T08:07:59.640Z,76.60
2018-07-28T08:10:27.967Z,76.00
2018-07-28T08:12:56.293Z,75.60
2018-07-28T08:15:24.719Z,74.70
2018-07-28T08:17:53.048Z,75.00
2018-07-28T08:20:21.385Z,75.50
2018-07-28T08:22:49.999Z,76.20
2018-07-28T08:25:18.316Z,74.70
2018-07-28T08:27:46.711Z,74.80
2018-07-28T08:30:15.087Z,76.10
2018-07-28T08:32:43.413Z,77.80
2018-07-28T08:35:11.724Z,79.20
2018-07-28T08:37:40.101Z,77.40
2018-07-28T08:40:08.545Z,78.60
2018-07-28T08:42:36.780Z,78.30
2018-07-28T08:45:05.932Z,77.60
2018-07-28T08:47:34.290Z,77.40
2018-07-28T08:50:02.680Z,77.50
2018-07-28T08:52:30.960Z,77.20
2018-07-28T08:54:59.293Z,78.00
2018-07-28T08:57:27.667Z,77.10
2018-07-28T08:59:56.018Z,76.00
2018-07-28T09:02:24.351Z,77.20
2018-07-28T09:04:52.653Z,75.90
2018-07-28T09:07:20.980Z,75.30
2018-07-28T09:09:49.276Z,75.60
2018-07-28T09:12:17.666Z,76.00
2018-07-28T09:14:46.042Z,75.80
2018-07-28T09:17:14.361Z,75.40
2018-07-28T09:19:42.699Z,76.70
2018-07-28T09:22:11.003Z,75.50
2018-07-28T09:24:39.355Z,75.00
2018-07-28T09:27:07.649Z,74.00
2018-07-28T09:29:35.953Z,74.10
2018-07-28T09:32:04.271Z,74.20
2018-07-28T09:34:32.591Z,74.40
2018-07-28T09:37:00.922Z,73.30
2018-07-28T09:39:29.270Z,73.40
2018-07-28T09:41:57.564Z,74.50
2018-07-28T09:44:25.887Z,72.90
2018-07-28T09:46:54.204Z,73.50
2018-07-28T09:49:22.545Z,73.00
2018-07-28T09:51:50.902Z,73.00
2018-07-28T09:54:19.222Z,72.20
2018-07-28T09:56:47.528Z,71.60
2018-07-28T09:59:15.862Z,72.30
2018-07-28T10:01:44.145Z,72.50
2018-07-28T10:04:12.569Z,71.50
2018-07-28T10:06:40.870Z,70.60
2018-07-28T10:09:11.049Z,70.00
2018-07-28T10:11:39.363Z,70.10
2018-07-28T10:14:07.815Z,70.10
2018-07-28T10:16:36.111Z,70.80
2018-07-28T10:19:04.471Z,70.10
2018-07-28T10:21:32.796Z,69.60
2018-07-28T10:24:01.269Z,69.80
2018-07-28T10:26:29.623Z,69.50
2018-07-28T10:28:57.981Z,68.60
2018-07-28T10:31:26.324Z,69.10
2018-07-28T10:33:54.935Z,68.90
2018-07-28T10:36:23.318Z,69.40
2018-07-28T10:38:51.605Z,68.90
2018-07-28T10:41:19.943Z,69.10
2018-07-28T10:43:48.494Z,69.80
2018-07-28T10:46:19.761Z,69.40
2018-07-28T10:48:48.797Z,68.90
2018-07-28T10:51:17.303Z,69.30
2018-07-28T10:53:45.808Z,69.80
2018-07-28T10:56:14.411Z,68.00
2018-07-28T10:58:43.243Z,67.80
2018-07-28T11:01:11.559Z,67.30
2018-07-28T11:03:39.919Z,67.40
2018-07-28T11:06:08.551Z,67.40
2018-07-28T11:08:36.875Z,67.30
2018-07-28T11:11:05.484Z,67.40
2018-07-28T11:13:33.809Z,66.80
2018-07-28T11:16:02.295Z,66.40
2018-07-28T11:18:30.613Z,65.90
2018-07-28T11:20:58.965Z,64.90
2018-07-28T11:23:38.655Z,64.60
2018-07-28T11:26:07.101Z,64.50
2018-07-28T11:28:35.340Z,64.60
2018-07-28T11:31:03.695Z,64.30
2018-07-28T11:33:43.355Z,64.60
2018-07-28T11:36:23.009Z,64.80
2018-07-28T11:39:02.612Z,66.10
2018-07-28T11:41:42.299Z,66.20
2018-07-28T11:44:21.899Z,65.60
2018-07-28T11:46:50.215Z,66.40
2018-07-28T11:49:18.538Z,65.10
2018-07-28T11:51:46.839Z,65.40
2018-07-28T11:54:15.187Z,65.90
2018-07-28T11:56:43.507Z,65.10
2018-07-28T11:59:11.830Z,65.80
2018-07-28T12:01:40.269Z,66.80
2018-07-28T12:04:08.562Z,67.00
2018-07-28T12:06:37.718Z,66.80
2018-07-28T12:09:07.576Z,65.80
2018-07-28T12:11:35.888Z,65.80
2018-07-28T12:14:04.301Z,66.80
2018-07-28T12:16:32.624Z,66.80
2018-07-28T12:19:00.932Z,66.30
2018-07-28T12:21:29.273Z,66.10
2018-07-28T12:23:57.611Z,65.00
2018-07-28T12:26:25.935Z,64.90
2018-07-28T12:28:54.240Z,63.80
2018-07-28T12:31:22.739Z,63.60
2018-07-28T12:33:51.035Z,64.00
2018-07-28T12:36:19.347Z,63.50
2018-07-28T12:38:47.637Z,63.60
2018-07-28T12:41:15.941Z,64.00
2018-07-28T12:43:44.251Z,63.10
2018-07-28T12:46:12.580Z,63.50
2018-07-28T12:48:40.887Z,64.10
2018-07-28T12:51:09.237Z,64.50
2018-07-28T12:53:37.556Z,64.30
2018-07-28T12:56:06.003Z,64.80
2018-07-28T12:58:34.336Z,64.50
2018-07-28T13:01:03.335Z,64.90
2018-07-28T13:03:31.698Z,65.50
2018-07-28T13:06:00.027Z,63.70
2018-07-28T13:08:28.335Z,63.00
2018-07-28T13:10:56.701Z,63.80
2018-07-28T13:13:25.396Z,66.60
2018-07-28T13:15:53.745Z,66.90
2018-07-28T13:18:22.051Z,68.10
2018-07-28T13:20:50.376Z,68.00
2018-07-28T13:23:18.691Z,72.50
2018-07-28T13:25:47.047Z,72.30
2018-07-28T13:28:15.372Z,73.30
2018-07-28T13:30:43.725Z,73.60
2018-07-28T13:33:12.081Z,74.70
2018-07-28T13:35:40.473Z,77.00
2018-07-28T13:38:08.874Z,76.30
2018-07-28T13:40:43.879Z,76.50
2018-07-28T13:43:12.181Z,77.20
2018-07-28T13:45:40.500Z,75.90
2018-07-28T13:48:08.824Z,77.30
2018-07-28T13:50:37.147Z,77.10
2018-07-28T13:53:05.479Z,77.00
2018-07-28T13:55:33.801Z,77.10
2018-07-28T13:58:02.133Z,75.40
2018-07-28T14:00:30.469Z,72.30
2018-07-28T14:02:58.763Z,71.50
2018-07-28T14:05:27.119Z,72.80
2018-07-28T14:07:55.452Z,73.30
2018-07-28T14:10:23.769Z,77.40
2018-07-28T14:12:52.155Z,75.90
2018-07-28T14:15:20.525Z,81.50
2018-07-28T14:17:48.831Z,85.80
2018-07-28T14:20:17.177Z,79.30
2018-07-28T14:22:45.525Z,83.10
2018-07-28T14:25:13.896Z,81.20
2018-07-28T14:27:42.267Z,80.60
2018-07-28T14:30:10.600Z,84.00
2018-07-28T14:32:38.929Z,84.40
2018-07-28T14:35:07.252Z,85.00
2018-07-28T14:37:35.623Z,84.40
2018-07-28T14:40:03.984Z,83.70
2018-07-28T14:42:32.309Z,83.50
2018-07-28T14:45:00.623Z,83.60
2018-07-28T14:47:28.991Z,83.00
2018-07-28T14:49:57.348Z,82.80
2018-07-28T14:52:25.672Z,83.70
2018-07-28T14:54:54.033Z,85.30
2018-07-28T14:57:22.472Z,86.00
2018-07-28T14:59:50.777Z,83.70
2018-07-28T15:02:19.246Z,85.20
2018-07-28T15:04:47.596Z,84.00
2018-07-28T15:07:15.968Z,84.70
2018-07-28T15:09:44.311Z,84.80
2018-07-28T15:12:12.717Z,84.40
2018-07-28T15:14:41.075Z,84.40
2018-07-28T15:17:09.401Z,84.60
2018-07-28T15:19:37.840Z,82.80
2018-07-28T15:22:07.319Z,85.90
2018-07-28T15:24:35.732Z,88.00
2018-07-28T15:27:04.104Z,87.70
2018-07-28T15:29:32.424Z,82.20
2018-07-28T15:32:00.753Z,83.40
2018-07-28T15:34:29.098Z,84.40
2018-07-28T15:36:57.446Z,85.40
2018-07-28T15:39:25.744Z,87.40
2018-07-28T15:41:54.233Z,86.80
2018-07-28T15:44:22.657Z,85.90
2018-07-28T15:46:50.995Z,83.30
2018-07-28T15:49:19.451Z,81.60
2018-07-28T15:51:47.741Z,82.30
2018-07-28T15:54:16.077Z,82.50
2018-07-28T15:56:44.389Z,81.90
2018-07-28T15:59:12.723Z,83.40
2018-07-28T16:01:41.103Z,82.30
2018-07-28T16:04:09.406Z,81.30
2018-07-28T16:06:37.843Z,82.90
2018-07-28T16:09:08.450Z,83.50
2018-07-28T16:11:36.748Z,80.90
2018-07-28T16:14:05.100Z,81.70
2018-07-28T16:16:33.552Z,82.90
2018-07-28T16:19:01.912Z,83.40
2018-07-28T16:21:30.215Z,83.30
2018-07-28T16:23:58.540Z,83.30
2018-07-28T16:26:26.878Z,83.10
2018-07-28T16:28:55.699Z,84.00
2018-07-28T16:31:24.011Z,83.70
2018-07-28T16:33:52.388Z,82.40
2018-07-28T16:36:20.748Z,83.60
2018-07-28T16:38:49.142Z,83.20
2018-07-28T16:41:17.561Z,83.30
2018-07-28T16:43:45.980Z,82.90
2018-07-28T16:46:14.290Z,83.40
2018-07-28T16:48:42.660Z,83.60
2018-07-28T16:51:11.004Z,83.30
2018-07-28T16:53:39.303Z,81.90
2018-07-28T16:56:07.624Z,83.10
2018-07-28T16:58:35.951Z,83.60
2018-07-28T17:01:04.343Z,82.90
2018-07-28T17:03:32.676Z,83.30
2018-07-28T17:06:00.969Z,82.70
2018-07-28T17:08:29.299Z,84.20
2018-07-28T17:10:57.635Z,83.10
2018-07-28T17:13:26.037Z,83.40
2018-07-28T17:15:54.336Z,83.80
2018-07-28T17:18:23.268Z,79.70
2018-07-28T17:20:51.947Z,82.30
2018-07-28T17:23:20.482Z,82.60
2018-07-28T17:25:48.769Z,82.20
2018-07-28T17:28:17.086Z,83.10
2018-07-28T17:30:45.428Z,83.60
2018-07-28T17:33:13.792Z,80.30
2018-07-28T17:35:42.072Z,70.30
2018-07-28T17:38:10.396Z,67.60
2018-07-28T17:40:38.693Z,67.90
2018-07-28T17:43:07.083Z,67.20
2018-07-28T17:45:35.377Z,67.30
2018-07-28T17:48:03.693Z,68.30
2018-07-28T17:50:32.068Z,67.70
2018-07-28T17:53:00.395Z,67.90
2018-07-28T17:55:28.711Z,68.30
2018-07-28T17:57:57.120Z,68.20
2018-07-28T18:00:25.898Z,68.00
2018-07-28T18:02:54.389Z,69.00
2018-07-28T18:05:22.751Z,68.40
2018-07-28T18:07:51.161Z,68.00
2018-07-28T18:10:19.523Z,68.50
2018-07-28T18:12:47.844Z,68.50
2018-07-28T18:15:16.172Z,69.40
2018-07-28T18:17:44.507Z,68.60
2018-07-28T18:20:12.837Z,68.20
2018-07-28T18:22:41.132Z,68.10
2018-07-28T18:25:09.448Z,68.80
2018-07-28T18:27:37.755Z,67.90
2018-07-28T18:30:06.103Z,68.00
2018-07-28T18:32:34.409Z,68.00
2018-07-28T18:35:02.756Z,68.10
2018-07-28T18:37:31.083Z,67.50
2018-07-28T18:39:59.426Z,68.10
2018-07-28T18:42:27.762Z,68.20
2018-07-28T18:44:56.089Z,68.30
2018-07-28T18:47:24.424Z,67.60
2018-07-28T18:49:52.752Z,68.30
2018-07-28T18:52:21.115Z,68.60
2018-07-28T18:54:49.440Z,68.90
2018-07-28T18:57:17.827Z,69.60
2018-07-28T18:59:46.179Z,68.80
2018-07-28T19:02:14.504Z,69.30
2018-07-28T19:04:42.905Z,69.80
2018-07-28T19:07:11.152Z,69.10
2018-07-28T19:09:44.783Z,69.00
2018-07-28T19:12:13.065Z,68.40
2018-07-28T19:14:41.449Z,68.40
2018-07-28T19:17:09.733Z,68.10
2018-07-28T19:19:38.066Z,68.40
2018-07-28T19:22:11.896Z,68.30
2018-07-28T19:24:40.216Z,68.00
2018-07-28T19:27:08.511Z,68.60
2018-07-28T19:29:42.349Z,70.00
2018-07-28T19:32:11.012Z,70.40
2018-07-28T19:34:39.708Z,71.20
2018-07-28T19:37:13.514Z,72.10
2018-07-28T19:39:41.851Z,72.60
2018-07-28T19:42:15.456Z,71.30
2018-07-28T19:44:43.776Z,73.20
2018-07-28T19:47:12.132Z,74.10
2018-07-28T19:49:40.448Z,73.90
2018-07-28T19:52:08.744Z,74.20
2018-07-28T19:54:37.082Z,75.00
2018-07-28T19:57:05.609Z,74.90
2018-07-28T19:59:33.916Z,74.50
2018-07-28T20:02:02.295Z,75.70
2018-07-28T20:04:30.637Z,75.40
2018-07-28T20:06:59.005Z,76.60
2018-07-28T20:09:27.352Z,76.90
2018-07-28T20:11:55.671Z,76.50
2018-07-28T20:14:24.070Z,76.80
2018-07-28T20:16:52.472Z,77.40
2018-07-28T20:19:20.779Z,77.70
2018-07-28T20:21:49.113Z,78.00
2018-07-28T20:24:17.428Z,77.50
2018-07-28T20:26:45.759Z,77.40
2018-07-28T20:29:14.052Z,78.70
2018-07-28T20:31:42.387Z,78.40
2018-07-28T20:34:10.707Z,78.70
2018-07-28T20:36:39.199Z,77.20
2018-07-28T20:39:09.092Z,76.70
2018-07-28T20:41:37.402Z,79.10
2018-07-28T20:44:05.753Z,79.90
2018-07-28T20:46:34.064Z,80.00
2018-07-28T20:49:02.357Z,80.20
2018-07-28T20:51:30.668Z,79.20
2018-07-28T20:53:58.980Z,79.30
2018-07-28T20:56:27.300Z,79.90
2018-07-28T20:58:55.695Z,80.50
2018-07-28T21:03:52.084Z,81.10
2018-07-28T21:06:20.413Z,81.40
2018-07-28T21:08:48.740Z,81.80
2018-07-28T21:11:17.088Z,83.20
2018-07-28T21:13:45.401Z,83.40
2018-07-28T21:16:13.713Z,84.00
2018-07-28T21:21:10.072Z,83.50
2018-07-28T21:23:38.376Z,84.00
2018-07-28T21:26:07.171Z,84.10
2018-07-28T21:28:35.514Z,84.50
2018-07-28T21:31:04.023Z,84.70
2018-07-28T21:33:32.417Z,85.00
2018-07-28T21:36:00.713Z,84.80
2018-07-28T21:38:29.027Z,85.20
2018-07-28T21:40:57.371Z,85.10
2018-07-28T21:43:25.692Z,83.90
2018-07-28T21:45:54.133Z,83.40
2018-07-28T21:48:22.452Z,83.00
2018-07-28T21:50:50.782Z,82.40
2018-07-28T21:53:19.129Z,83.00
2018-07-28T21:55:47.454Z,81.60
2018-07-28T21:58:15.776Z,82.70
2018-07-28T22:00:50.619Z,82.70
2018-07-28T22:03:18.942Z,83.30
2018-07-28T22:05:47.277Z,83.40
2018-07-28T22:08:15.726Z,83.10
2018-07-28T22:10:44.099Z,83.50
2018-07-28T22:13:12.415Z,83.10
2018-07-28T22:15:40.750Z,83.00
2018-07-28T22:18:09.127Z,82.90
2018-07-28T22:20:37.484Z,83.40
2018-07-28T22:23:05.831Z,84.00
2018-07-28T22:25:34.172Z,84.20
2018-07-28T22:28:02.505Z,84.90
2018-07-28T22:30:31.223Z,85.50
2018-07-28T22:32:59.591Z,85.40
2018-07-28T22:35:27.968Z,85.00
2018-07-28T22:37:56.316Z,84.90
2018-07-28T22:40:24.635Z,84.80
2018-07-28T22:42:52.975Z,85.00
2018-07-28T22:45:21.441Z,85.80
2018-07-28T22:47:49.823Z,86.30
2018-07-28T22:50:18.548Z,87.70
2018-07-28T22:52:46.887Z,89.20
2018-07-28T22:55:15.216Z,89.90
2018-07-28T22:57:43.559Z,90.50
2018-07-28T23:00:11.932Z,90.70
2018-07-28T23:02:40.271Z,91.00
2018-07-28T23:05:08.777Z,91.30
2018-07-28T23:07:37.163Z,91.20
2018-07-28T23:10:05.790Z,91.30
2018-07-28T23:12:34.148Z,91.60
2018-07-28T23:15:02.499Z,91.60
2018-07-28T23:17:30.902Z,91.80
2018-07-28T23:19:59.201Z,91.60
2018-07-28T23:22:27.538Z,91.40
2018-07-28T23:24:55.890Z,90.70
2018-07-28T23:27:24.231Z,90.20
2018-07-28T23:29:52.596Z,90.00
2018-07-28T23:32:20.911Z,90.10
2018-07-28T23:34:49.236Z,90.00
2018-07-28T23:37:17.871Z,89.90
2018-07-28T23:39:46.236Z,89.90
2018-07-28T23:42:14.595Z,89.60
2018-07-28T23:44:42.907Z,89.70
2018-07-28T23:47:11.260Z,89.90
2018-07-28T23:49:39.594Z,90.10
2018-07-28T23:52:07.960Z,90.20
2018-07-28T23:54:36.385Z,90.30
2018-07-28T23:57:04.764Z,89.90
2018-07-28T23:59:33.132Z,89.20
